Historyczne dane pomiarowe

Dodano dane terminowe – wersja testowa.

Dane z okresu 1951-2019

Wersja bazy: 1.34 [2019-03-16, lista zmian], aktualizacja planowana na 2019-04-15

Dane meteo z obszaru Polski uzyskane na podstawie danych udostępnionych przez Instytut Meteorologii i Gospodarki Wodnej – Państwowy Instytut Badawczy.

 

Wybierz Datę:    

       

TemperaturaWilgotnośćWiatrCiśnienieOpadyŚniegCzas trwania zjawisk
 Stacja t tx tn tng RH VA  wxwx mslp ppp RRR   cm mm wxwxwxwxwxwxwx
1952-04-17 5.0 9.5 -2.6 -3.2 60.0- 3.0 2.3---- 0.0------------
1952-04-18 5.7 9.9 2.6 1.5 77.0- 0.0 3.0---- 0.0------------
1952-04-19 8.6 15.2 1.7 0.7 70.8- 2.0 4.0---- 0.0------------
1952-04-20 10.0 15.5 -1.1 -1.3 73.3- 0.0 3.0---- 0.5------------
1952-04-21 8.8 12.5 1.1 7.6 90.0- 5.7 2.7---- 0.0------------
1952-04-22 13.6 23.4 6.3 4.7 75.8- 6.0 2.0---- 2.4------------
1952-04-23 9.3 12.0 6.7 6.8 86.3- 7.7 2.3---- 3.8------------
1952-04-24 5.9 10.1 5.1 5.1 94.3- 4.7 3.3---- 6.8------------
1952-04-25 7.6 10.1 4.0 3.3 95.0- 6.3 0.3---- 0.2------------
1952-04-26 6.4 9.3 3.5 2.4 92.0- 3.7 2.0---- 0.0------------
1952-04-27 5.7 7.0 4.6 4.8 96.0- 8.0 2.0---- 0.0------------
1952-04-28 8.1 10.6 4.9 4.9 95.0- 6.7 1.3---- 12.1------------
1952-04-29 5.4 9.1 3.5 5.4 98.8- 8.0 2.0---- 1.0------------
1952-04-30 8.5 14.5 1.4 0.5 94.3- 6.0 2.0---- 0.0------------
1952-05-01 7.8 15.8 4.4 0.7 93.3- 2.7 3.7---- 0.5------------
1952-05-02 4.8 8.6 2.7 4.5 94.0- 6.3 4.7---- 0.0------------
1952-05-03 8.6 16.2 -0.4 -1.5 84.8- 1.0 3.7---- 0.0------------
1952-05-04 18.1 24.7 4.3 2.4 73.3- 2.3 5.0---- 0.0------------
1952-05-05 13.3 21.6 10.1 12.3 93.0- 8.0 3.7---- 3.7------------
1952-05-06 12.3 17.0 9.7 8.2 91.8- 2.0 3.0---- 0.0------------
1952-05-07 9.5 14.5 5.9 4.9 90.3- 0.0 4.3---- 0.0------------
1952-05-08 9.6 12.4 4.7 4.9 83.8- 5.0 5.0---- 0.0------------
1952-05-09 13.9 21.3 6.7 4.9 55.3- 0.3 4.3---- 0.0------------
1952-05-10 15.1 22.3 6.1 4.2 69.3- 6.3 4.0---- 0.0------------
1952-05-11 8.4 13.5 6.5 9.0 90.5- 5.3 3.3---- 0.0------------
1952-05-12 10.1 14.2 1.4 0.5 80.3- 2.0 2.3---- 9.8------------
1952-05-13 7.6 10.1 6.6 6.4 98.5- 8.0 2.0---- 9.5------------
1952-05-14 9.5 10.5 6.7 5.8 87.5- 7.7 5.3---- 5.2------------
1952-05-15 5.9 10.6 4.1 7.7 82.3- 5.3 5.0---- 1.0------------
1952-05-16 4.2 6.3 -1.3 -2.4 89.5- 8.0 0.7---- 4.9------------
108.5 ms

 

Źródłem pochodzenia danych jest Instytut Meteorologii i Gospodarki Wodnej – Państwowy Instytut Badawczy. Dane Instytutu Meteorologii i Gospodarki Wodnej – Państwowego Instytutu Badawczego zostały przetworzone.

Dane źródłowe można odnaleźć na stronie https://dane.imgw.pl